createdAt,value
2017-12-31T00:00:52.919Z,3.63
2017-12-31T00:03:21.180Z,2.23
2017-12-31T00:05:49.431Z,3.87
2017-12-31T00:08:18.473Z,6.70
2017-12-31T00:10:46.730Z,3.07
2017-12-31T00:13:15.000Z,4.00
2017-12-31T00:15:43.251Z,4.63
2017-12-31T00:18:12.287Z,3.47
2017-12-31T00:20:40.579Z,4.90
2017-12-31T00:23:08.867Z,4.20
2017-12-31T00:25:37.127Z,9.90
2017-12-31T00:28:05.408Z,5.70
2017-12-31T00:30:33.684Z,6.20
2017-12-31T00:33:02.078Z,3.67
2017-12-31T00:35:30.348Z,9.23
2017-12-31T00:37:58.623Z,1.80
2017-12-31T00:40:26.915Z,3.13
2017-12-31T00:42:55.195Z,3.90
2017-12-31T00:45:23.568Z,2.47
2017-12-31T00:47:51.943Z,2.87
2017-12-31T00:50:20.219Z,3.33
2017-12-31T00:52:48.499Z,1.87
2017-12-31T00:55:16.747Z,2.43
2017-12-31T00:57:45.007Z,2.77
2017-12-31T01:00:13.275Z,4.30
2017-12-31T01:02:41.532Z,6.97
2017-12-31T01:05:09.800Z,1.70
2017-12-31T01:07:38.155Z,1.93
2017-12-31T01:10:06.438Z,1.90
2017-12-31T01:12:34.715Z,2.83
2017-12-31T01:15:02.963Z,3.40
2017-12-31T01:17:31.235Z,3.40
2017-12-31T01:19:59.536Z,2.13
2017-12-31T01:22:27.824Z,1.70
2017-12-31T01:24:56.063Z,2.07
2017-12-31T01:27:24.351Z,4.50
2017-12-31T01:29:52.603Z,5.10
2017-12-31T01:32:20.856Z,3.23
2017-12-31T01:34:50.134Z,3.53
2017-12-31T01:37:18.509Z,3.10
2017-12-31T01:39:46.775Z,4.87
2017-12-31T01:42:15.033Z,5.20
2017-12-31T01:44:43.317Z,6.60
2017-12-31T01:47:11.560Z,1.63
2017-12-31T01:49:40.575Z,1.57
2017-12-31T01:52:08.852Z,4.30
2017-12-31T01:54:37.103Z,4.23
2017-12-31T01:57:06.132Z,4.40
2017-12-31T01:59:34.385Z,8.13
2017-12-31T02:02:03.424Z,2.67
2017-12-31T02:04:31.671Z,2.07
2017-12-31T02:06:59.979Z,3.57
2017-12-31T02:09:28.262Z,3.23
2017-12-31T02:11:56.641Z,3.90
2017-12-31T02:14:24.902Z,1.77
2017-12-31T02:16:53.141Z,6.47
2017-12-31T02:19:22.179Z,3.50
2017-12-31T02:21:50.427Z,6.00
2017-12-31T02:24:18.679Z,4.40
2017-12-31T02:26:47.740Z,4.03
2017-12-31T02:29:15.983Z,4.83
2017-12-31T02:31:44.256Z,12.07
2017-12-31T02:34:12.503Z,2.83
2017-12-31T02:36:41.538Z,7.13
2017-12-31T02:39:09.798Z,1.87
2017-12-31T02:41:38.116Z,3.60
2017-12-31T02:44:06.495Z,13.77
2017-12-31T02:46:34.748Z,4.07
2017-12-31T02:49:03.052Z,5.43
2017-12-31T02:51:31.325Z,2.57
2017-12-31T02:53:59.604Z,5.23
2017-12-31T02:56:27.850Z,4.17
2017-12-31T02:58:56.152Z,13.37
2017-12-31T03:01:24.428Z,8.20
2017-12-31T03:03:52.679Z,4.20
2017-12-31T03:06:20.947Z,7.20
2017-12-31T03:08:49.200Z,5.03
2017-12-31T03:11:18.240Z,4.83
2017-12-31T03:13:46.533Z,6.77
2017-12-31T03:16:14.783Z,3.90
2017-12-31T03:18:43.060Z,13.03
2017-12-31T03:21:11.316Z,3.57
2017-12-31T03:23:40.669Z,6.80
2017-12-31T03:26:08.944Z,5.70
2017-12-31T03:28:37.202Z,2.10
2017-12-31T03:31:05.497Z,5.33
2017-12-31T03:33:33.748Z,6.77
2017-12-31T03:36:02.163Z,8.70
2017-12-31T03:38:30.407Z,5.70
2017-12-31T03:40:58.671Z,6.87
2017-12-31T03:43:26.921Z,4.57
2017-12-31T03:45:55.981Z,4.80
2017-12-31T03:48:24.216Z,5.60
2017-12-31T03:50:52.534Z,3.43
2017-12-31T03:53:20.789Z,3.73
2017-12-31T03:55:49.034Z,4.47
2017-12-31T03:58:17.310Z,4.20
2017-12-31T04:00:46.357Z,8.23
2017-12-31T04:03:14.647Z,5.23
2017-12-31T04:05:42.900Z,9.13
2017-12-31T04:08:11.184Z,2.90
2017-12-31T04:10:39.465Z,4.67
2017-12-31T04:13:07.702Z,5.90
2017-12-31T04:15:36.022Z,2.87
2017-12-31T04:18:04.263Z,6.13
2017-12-31T04:20:32.545Z,6.30
2017-12-31T04:23:00.799Z,5.20
2017-12-31T04:25:29.052Z,5.13
2017-12-31T04:27:57.407Z,4.70
2017-12-31T04:30:25.644Z,5.33
2017-12-31T04:32:53.960Z,5.50
2017-12-31T04:35:22.201Z,10.83
2017-12-31T04:37:50.515Z,14.60
2017-12-31T04:40:18.785Z,5.57
2017-12-31T04:42:47.036Z,6.90
2017-12-31T04:45:15.316Z,4.90
2017-12-31T04:47:43.570Z,4.53
2017-12-31T04:50:12.716Z,4.23
2017-12-31T04:52:41.098Z,3.30
2017-12-31T04:55:09.351Z,7.50
2017-12-31T04:57:37.650Z,3.17
2017-12-31T05:00:05.914Z,3.43
2017-12-31T05:02:34.307Z,4.53
2017-12-31T05:05:02.548Z,7.30
2017-12-31T05:07:30.815Z,8.63
2017-12-31T05:09:59.076Z,6.17
2017-12-31T05:12:28.337Z,3.90
2017-12-31T05:14:56.571Z,7.07
2017-12-31T05:17:24.820Z,7.97
2017-12-31T05:19:53.859Z,3.37
2017-12-31T05:22:22.162Z,5.03
2017-12-31T05:24:50.644Z,5.50
2017-12-31T05:27:18.920Z,6.10
2017-12-31T05:29:47.187Z,3.30
2017-12-31T05:32:15.475Z,5.00
2017-12-31T05:34:43.712Z,5.90
2017-12-31T05:37:11.987Z,12.43
2017-12-31T05:39:40.245Z,10.67
2017-12-31T05:42:09.270Z,4.03
2017-12-31T05:44:37.547Z,13.40
2017-12-31T05:47:05.795Z,8.70
2017-12-31T05:49:34.828Z,3.03
2017-12-31T05:52:03.084Z,3.43
2017-12-31T05:54:31.395Z,5.80
2017-12-31T05:56:59.672Z,4.37
2017-12-31T05:59:27.962Z,3.83
2017-12-31T06:01:57.154Z,3.60
2017-12-31T06:04:25.429Z,6.50
2017-12-31T06:06:53.704Z,3.57
2017-12-31T06:09:21.951Z,4.80
2017-12-31T06:11:50.263Z,7.60
2017-12-31T06:14:18.511Z,5.67
2017-12-31T06:16:46.767Z,10.00
2017-12-31T06:19:15.041Z,5.33
2017-12-31T06:21:44.059Z,3.53
2017-12-31T06:24:12.328Z,9.70
2017-12-31T06:26:40.578Z,8.43
2017-12-31T06:29:09.623Z,9.00
2017-12-31T06:31:37.881Z,3.80
2017-12-31T06:34:06.144Z,10.60
2017-12-31T06:36:34.569Z,4.17
2017-12-31T06:39:02.805Z,8.43
2017-12-31T06:41:31.079Z,7.53
2017-12-31T06:43:59.348Z,4.03
2017-12-31T06:46:28.599Z,4.50
2017-12-31T06:48:56.843Z,10.53
2017-12-31T06:51:25.143Z,9.20
2017-12-31T06:53:53.431Z,5.30
2017-12-31T06:56:21.705Z,6.30
2017-12-31T06:58:49.969Z,3.93
2017-12-31T07:01:18.257Z,11.00
2017-12-31T07:03:46.511Z,10.07
2017-12-31T07:06:14.884Z,11.80
2017-12-31T07:08:43.139Z,5.17
2017-12-31T07:11:11.471Z,9.87
2017-12-31T07:13:39.695Z,4.37
2017-12-31T07:16:07.982Z,5.07
2017-12-31T07:18:36.301Z,7.67
2017-12-31T07:21:04.578Z,6.93
2017-12-31T07:23:32.868Z,5.23
2017-12-31T07:26:01.139Z,8.33
2017-12-31T07:28:30.186Z,9.90
2017-12-31T07:30:59.216Z,2.87
2017-12-31T07:33:27.602Z,8.63
2017-12-31T07:35:55.850Z,4.87
2017-12-31T07:38:24.091Z,3.83
2017-12-31T07:40:53.243Z,6.57
2017-12-31T07:43:21.632Z,9.37
2017-12-31T07:45:49.887Z,7.27
2017-12-31T07:48:18.147Z,10.80
2017-12-31T07:50:46.423Z,8.17
2017-12-31T07:53:14.735Z,7.17
2017-12-31T07:55:42.996Z,6.87
2017-12-31T07:58:11.294Z,6.93
2017-12-31T08:00:40.258Z,7.73
2017-12-31T08:03:08.527Z,7.40
2017-12-31T08:05:36.841Z,9.77
2017-12-31T08:08:05.221Z,5.33
2017-12-31T08:10:33.604Z,4.67
2017-12-31T08:13:01.847Z,11.60
2017-12-31T08:15:30.123Z,6.10
2017-12-31T08:17:58.370Z,5.27
2017-12-31T08:20:27.539Z,9.00
2017-12-31T08:22:56.628Z,7.20
2017-12-31T08:25:24.884Z,8.03
2017-12-31T08:27:53.141Z,12.40
2017-12-31T08:30:21.451Z,10.13
2017-12-31T08:32:49.831Z,7.77
2017-12-31T08:35:18.079Z,9.03
2017-12-31T08:37:46.497Z,8.70
2017-12-31T08:40:14.759Z,6.73
2017-12-31T08:42:43.055Z,6.33
2017-12-31T08:45:11.309Z,5.47
2017-12-31T08:47:39.567Z,13.80
2017-12-31T08:50:07.848Z,4.27
2017-12-31T08:52:36.105Z,5.83
2017-12-31T08:55:04.387Z,9.63
2017-12-31T08:57:32.647Z,8.37
2017-12-31T09:00:01.695Z,9.73
2017-12-31T09:02:29.963Z,5.90
2017-12-31T09:04:58.250Z,10.50
2017-12-31T09:07:26.536Z,5.80
2017-12-31T09:09:54.779Z,10.07
2017-12-31T09:12:23.067Z,9.63
2017-12-31T09:14:51.323Z,5.50
2017-12-31T09:17:19.591Z,6.87
2017-12-31T09:19:48.603Z,8.00
2017-12-31T09:22:16.887Z,5.57
2017-12-31T09:24:45.136Z,10.23
2017-12-31T09:27:13.412Z,5.17
2017-12-31T09:29:41.736Z,7.17
2017-12-31T09:32:10.123Z,13.00
2017-12-31T09:34:38.378Z,13.60
2017-12-31T09:37:06.674Z,9.60
2017-12-31T09:39:35.101Z,9.80
2017-12-31T09:42:04.823Z,10.93
2017-12-31T09:44:33.099Z,8.60
2017-12-31T09:47:01.382Z,16.03
2017-12-31T09:49:29.668Z,8.60
2017-12-31T09:51:57.928Z,13.40
2017-12-31T09:54:26.180Z,12.10
2017-12-31T09:56:55.219Z,24.13
2017-12-31T09:59:23.525Z,8.67
2017-12-31T10:01:51.791Z,7.00
2017-12-31T10:04:20.087Z,8.40
2017-12-31T10:06:48.364Z,12.63
2017-12-31T10:09:16.619Z,13.30
2017-12-31T10:11:44.904Z,14.03
2017-12-31T10:14:13.181Z,8.30
2017-12-31T10:16:41.479Z,7.63
2017-12-31T10:19:09.743Z,15.30
2017-12-31T10:21:38.119Z,8.13
2017-12-31T10:24:06.413Z,12.03
2017-12-31T10:26:35.596Z,9.13
2017-12-31T10:29:03.855Z,14.00
2017-12-31T10:31:32.119Z,18.97
2017-12-31T10:34:00.376Z,16.53
2017-12-31T10:36:28.652Z,16.73
2017-12-31T10:38:56.919Z,20.93
2017-12-31T10:41:26.075Z,15.50
2017-12-31T10:43:54.331Z,15.57
2017-12-31T10:46:22.607Z,9.53
2017-12-31T10:48:50.860Z,12.70
2017-12-31T10:51:19.143Z,7.60
2017-12-31T10:53:47.407Z,14.07
2017-12-31T10:56:15.685Z,13.33
2017-12-31T10:58:44.744Z,13.47
2017-12-31T11:01:13.767Z,10.17
2017-12-31T11:03:42.824Z,13.13
2017-12-31T11:06:11.080Z,15.40
2017-12-31T11:08:39.364Z,8.37
2017-12-31T11:11:07.705Z,8.77
2017-12-31T11:13:35.963Z,6.53
2017-12-31T11:16:05.129Z,8.80
2017-12-31T11:18:33.396Z,9.77
2017-12-31T11:21:01.677Z,14.93
2017-12-31T11:23:29.935Z,8.97
2017-12-31T11:25:58.208Z,13.87
2017-12-31T11:28:26.617Z,8.50
2017-12-31T11:30:54.866Z,10.30
2017-12-31T11:33:23.138Z,11.03
2017-12-31T11:35:51.400Z,11.47
2017-12-31T11:38:19.683Z,8.93
2017-12-31T11:40:47.984Z,9.73
2017-12-31T11:43:16.995Z,8.10
2017-12-31T11:45:45.239Z,13.67
2017-12-31T11:48:13.503Z,14.13
2017-12-31T11:50:41.820Z,7.57
2017-12-31T11:53:10.205Z,8.30
2017-12-31T11:55:38.459Z,10.50
2017-12-31T11:58:06.712Z,13.60
2017-12-31T12:00:34.991Z,8.50
2017-12-31T12:03:03.243Z,6.60
2017-12-31T12:05:32.260Z,11.90
2017-12-31T12:08:01.425Z,13.77
2017-12-31T12:10:29.680Z,10.73
2017-12-31T12:12:57.968Z,7.23
2017-12-31T12:15:26.271Z,8.63
2017-12-31T12:17:55.303Z,7.67
2017-12-31T12:20:23.571Z,10.67
2017-12-31T12:22:51.874Z,6.60
2017-12-31T12:25:20.162Z,6.30
2017-12-31T12:27:48.437Z,8.67
2017-12-31T12:30:16.716Z,8.87
2017-12-31T12:32:44.994Z,7.63
2017-12-31T12:35:13.304Z,11.53
2017-12-31T12:37:42.323Z,9.57
2017-12-31T12:40:10.616Z,6.30
2017-12-31T12:42:38.880Z,7.23
2017-12-31T12:45:07.301Z,9.40
2017-12-31T12:47:35.679Z,9.80
2017-12-31T12:50:03.931Z,7.97
2017-12-31T12:52:32.310Z,4.70
2017-12-31T12:55:00.566Z,4.63
2017-12-31T12:57:28.814Z,7.27
2017-12-31T12:59:57.871Z,6.13
2017-12-31T13:02:26.128Z,7.60
2017-12-31T13:04:54.407Z,5.30
2017-12-31T13:07:22.682Z,4.50
2017-12-31T13:09:50.967Z,4.07
2017-12-31T13:12:19.260Z,4.90
2017-12-31T13:14:47.519Z,10.20
2017-12-31T13:17:15.820Z,4.80
2017-12-31T13:19:44.214Z,4.53
2017-12-31T13:22:12.575Z,6.80
2017-12-31T13:24:40.860Z,5.90
2017-12-31T13:27:09.269Z,7.97
2017-12-31T13:29:37.528Z,5.27
2017-12-31T13:32:05.796Z,8.10
2017-12-31T13:34:34.079Z,3.07
2017-12-31T13:37:02.336Z,7.60
2017-12-31T13:39:30.631Z,3.80
2017-12-31T13:41:58.895Z,3.90
2017-12-31T13:44:27.295Z,4.80
2017-12-31T13:46:55.581Z,5.90
2017-12-31T13:49:23.848Z,4.13
2017-12-31T13:51:52.159Z,8.80
2017-12-31T13:54:20.403Z,3.90
2017-12-31T13:56:48.680Z,4.10
2017-12-31T13:59:17.147Z,4.83
2017-12-31T14:01:45.423Z,3.37
2017-12-31T14:04:13.803Z,3.23
2017-12-31T14:06:42.053Z,4.80
2017-12-31T14:09:10.358Z,3.23
2017-12-31T14:11:38.607Z,6.50
2017-12-31T14:14:06.907Z,12.23
2017-12-31T14:16:35.292Z,10.43
2017-12-31T14:19:03.673Z,3.90
2017-12-31T14:21:32.153Z,5.73
2017-12-31T14:24:00.407Z,4.40
2017-12-31T14:26:28.704Z,16.30
2017-12-31T14:28:56.954Z,5.40
2017-12-31T14:31:25.244Z,7.50
2017-12-31T14:33:53.503Z,8.17
2017-12-31T14:36:21.763Z,7.40
2017-12-31T14:38:50.046Z,8.00
2017-12-31T14:41:18.310Z,5.63
2017-12-31T14:43:47.364Z,6.00
2017-12-31T14:46:15.621Z,5.63
2017-12-31T14:48:43.917Z,8.20
2017-12-31T14:51:12.297Z,4.20
2017-12-31T14:53:40.552Z,9.23
2017-12-31T14:56:08.827Z,7.77
2017-12-31T14:58:37.107Z,3.30
2017-12-31T15:01:05.383Z,5.70
2017-12-31T15:03:33.769Z,9.13
2017-12-31T15:06:02.060Z,4.87
2017-12-31T15:08:30.327Z,5.57
2017-12-31T15:10:58.592Z,5.60
2017-12-31T15:13:26.871Z,5.70
2017-12-31T15:15:55.176Z,7.27
2017-12-31T15:18:24.348Z,3.30
2017-12-31T15:20:54.067Z,4.13
2017-12-31T15:23:23.380Z,4.30
2017-12-31T15:25:51.640Z,8.50
2017-12-31T15:28:20.001Z,3.80
2017-12-31T15:30:48.276Z,6.67
2017-12-31T15:33:16.526Z,7.97
2017-12-31T15:35:44.849Z,7.10
2017-12-31T15:38:13.109Z,4.70
2017-12-31T15:40:41.384Z,8.67
2017-12-31T15:43:09.648Z,5.63
2017-12-31T15:45:37.895Z,10.97
2017-12-31T15:48:06.171Z,6.27
2017-12-31T15:50:34.432Z,3.60
2017-12-31T15:53:03.483Z,3.17
2017-12-31T15:55:31.874Z,3.90
2017-12-31T15:58:00.119Z,10.97
2017-12-31T16:00:28.400Z,8.40
2017-12-31T16:02:56.655Z,5.07
2017-12-31T16:05:24.958Z,5.63
2017-12-31T16:07:53.241Z,7.57
2017-12-31T16:10:21.482Z,9.63
2017-12-31T16:12:49.911Z,4.07
2017-12-31T16:15:18.173Z,11.70
2017-12-31T16:17:46.487Z,4.83
2017-12-31T16:20:14.796Z,6.43
2017-12-31T16:22:43.097Z,7.07
2017-12-31T16:25:11.410Z,6.20
2017-12-31T16:27:39.710Z,5.63
2017-12-31T16:30:08.778Z,6.10
2017-12-31T16:32:37.041Z,9.17
2017-12-31T16:35:05.330Z,11.33
2017-12-31T16:37:33.620Z,7.20
2017-12-31T16:40:01.902Z,4.90
2017-12-31T16:42:30.268Z,6.37
2017-12-31T16:44:58.517Z,9.87
2017-12-31T16:47:27.861Z,9.87
2017-12-31T16:49:56.935Z,7.13
2017-12-31T16:52:25.212Z,6.23
2017-12-31T16:54:53.477Z,9.10
2017-12-31T16:57:21.755Z,8.77
2017-12-31T16:59:50.048Z,13.27
2017-12-31T17:02:18.323Z,15.27
2017-12-31T17:04:46.602Z,8.33
2017-12-31T17:07:14.997Z,8.97
2017-12-31T17:09:43.346Z,5.90
2017-12-31T17:12:11.737Z,7.77
2017-12-31T17:14:40.024Z,8.37
2017-12-31T17:17:08.285Z,7.43
2017-12-31T17:19:36.578Z,4.73
2017-12-31T17:22:05.049Z,8.20
2017-12-31T17:24:33.294Z,7.93
2017-12-31T17:27:01.597Z,5.90
2017-12-31T17:29:29.855Z,5.93
2017-12-31T17:31:58.157Z,17.60
2017-12-31T17:34:26.407Z,12.40
2017-12-31T17:36:54.731Z,13.20
2017-12-31T17:39:22.988Z,6.77
2017-12-31T17:41:51.264Z,8.97
2017-12-31T17:44:19.651Z,12.30
2017-12-31T17:46:47.916Z,8.23
2017-12-31T17:49:16.193Z,7.40
2017-12-31T17:51:44.449Z,8.27
2017-12-31T17:54:12.719Z,36.23
2017-12-31T17:56:41.025Z,9.00
2017-12-31T17:59:09.281Z,7.50
2017-12-31T18:01:37.560Z,7.53
2017-12-31T18:04:05.838Z,7.87
2017-12-31T18:06:34.136Z,13.17
2017-12-31T18:09:02.379Z,9.70
2017-12-31T18:11:30.797Z,11.03
2017-12-31T18:13:59.067Z,9.00
2017-12-31T18:16:27.326Z,12.43
2017-12-31T18:18:55.935Z,9.57
2017-12-31T18:21:24.184Z,11.17
2017-12-31T18:23:52.691Z,9.90
2017-12-31T18:26:20.969Z,11.30
2017-12-31T18:28:49.220Z,13.60
2017-12-31T18:31:17.564Z,10.97
2017-12-31T18:33:46.596Z,14.07
2017-12-31T18:36:14.897Z,24.13
2017-12-31T18:38:43.275Z,10.80
2017-12-31T18:41:11.549Z,9.20
2017-12-31T18:43:39.828Z,13.37
2017-12-31T18:46:08.100Z,13.57
2017-12-31T18:48:36.409Z,24.17
2017-12-31T18:51:04.676Z,10.20
2017-12-31T18:53:33.723Z,11.90
2017-12-31T18:56:01.999Z,10.50
2017-12-31T18:58:30.300Z,12.43
2017-12-31T19:00:58.571Z,10.30
2017-12-31T19:03:26.841Z,13.20
2017-12-31T19:05:55.138Z,10.07
2017-12-31T19:08:23.390Z,17.67
2017-12-31T19:10:51.680Z,19.43
2017-12-31T19:13:19.952Z,17.87
2017-12-31T19:15:48.251Z,15.10
2017-12-31T19:18:16.534Z,15.60
2017-12-31T19:20:44.803Z,15.53
2017-12-31T19:23:13.088Z,17.70
2017-12-31T19:25:41.564Z,15.70
2017-12-31T19:28:09.951Z,15.83
2017-12-31T19:30:38.228Z,16.80
2017-12-31T19:33:06.573Z,18.70
2017-12-31T19:35:34.862Z,12.13
2017-12-31T19:38:03.167Z,18.33
2017-12-31T19:40:31.448Z,16.40
2017-12-31T19:42:59.822Z,13.63
2017-12-31T19:45:28.099Z,11.50
2017-12-31T19:47:56.374Z,10.50
2017-12-31T19:50:24.665Z,19.70
2017-12-31T19:52:53.121Z,18.63
2017-12-31T19:55:21.388Z,21.57
2017-12-31T19:57:49.677Z,11.97
2017-12-31T20:00:18.046Z,16.60
2017-12-31T20:02:46.343Z,13.77
2017-12-31T20:05:14.610Z,10.93
2017-12-31T20:07:42.893Z,11.73
2017-12-31T20:10:11.161Z,12.83
2017-12-31T20:12:40.313Z,14.83
2017-12-31T20:15:08.579Z,28.70
2017-12-31T20:17:36.888Z,21.20
2017-12-31T20:20:05.168Z,13.37
2017-12-31T20:22:33.443Z,12.80
2017-12-31T20:25:01.820Z,16.83
2017-12-31T20:27:30.075Z,13.70
2017-12-31T20:29:58.366Z,25.33
2017-12-31T20:32:26.631Z,15.97
2017-12-31T20:34:54.924Z,13.63
2017-12-31T20:37:23.183Z,12.17
2017-12-31T20:39:51.456Z,16.50
2017-12-31T20:42:19.751Z,11.47
2017-12-31T20:44:48.015Z,13.70
2017-12-31T20:47:16.417Z,14.20
2017-12-31T20:49:44.720Z,12.00
2017-12-31T20:52:13.882Z,24.53
2017-12-31T20:54:42.145Z,12.90
2017-12-31T20:57:10.408Z,37.40
2017-12-31T20:59:38.713Z,20.37
2017-12-31T21:02:06.980Z,21.53
2017-12-31T21:04:35.239Z,10.17
2017-12-31T21:07:03.603Z,9.20
2017-12-31T21:09:33.446Z,27.63
2017-12-31T21:12:01.715Z,13.60
2017-12-31T21:14:29.991Z,15.73
2017-12-31T21:16:58.267Z,13.17
2017-12-31T21:19:26.541Z,12.90
2017-12-31T21:21:54.994Z,80.97
2017-12-31T21:24:24.022Z,17.50
2017-12-31T21:26:52.307Z,12.00
2017-12-31T21:29:20.565Z,9.87
2017-12-31T21:31:48.900Z,12.93
2017-12-31T21:34:17.355Z,32.80
2017-12-31T21:36:45.613Z,11.30
2017-12-31T21:39:13.892Z,19.43
2017-12-31T21:41:42.159Z,13.67
2017-12-31T21:44:10.451Z,11.50
2017-12-31T21:46:38.736Z,16.63
2017-12-31T21:49:07.000Z,13.67
2017-12-31T21:51:35.296Z,17.63
2017-12-31T21:54:03.565Z,17.60
2017-12-31T21:56:31.953Z,20.70
2017-12-31T21:59:00.206Z,13.10
2017-12-31T22:01:28.467Z,12.27
2017-12-31T22:03:58.320Z,11.40
2017-12-31T22:06:26.581Z,11.13
2017-12-31T22:08:54.883Z,10.10
2017-12-31T22:11:23.152Z,10.87
2017-12-31T22:13:51.524Z,18.70
2017-12-31T22:16:19.784Z,33.60
2017-12-31T22:18:48.077Z,13.93
2017-12-31T22:21:16.347Z,12.40
2017-12-31T22:23:44.632Z,18.93
2017-12-31T22:26:13.120Z,17.40
2017-12-31T22:28:41.370Z,10.87
2017-12-31T22:31:09.660Z,17.00
2017-12-31T22:33:37.937Z,14.47
2017-12-31T22:36:06.248Z,14.20
2017-12-31T22:38:34.514Z,10.07
2017-12-31T22:41:02.815Z,14.40
2017-12-31T22:43:31.980Z,9.87
2017-12-31T22:46:00.264Z,8.80
2017-12-31T22:48:28.541Z,11.50
2017-12-31T22:50:56.809Z,15.20
2017-12-31T22:53:25.088Z,11.50
2017-12-31T22:55:53.375Z,11.93
2017-12-31T22:58:21.672Z,15.93
2017-12-31T23:00:49.939Z,23.73
2017-12-31T23:03:18.400Z,19.97
2017-12-31T23:05:46.791Z,68.93
2017-12-31T23:08:15.063Z,60.53
2017-12-31T23:10:43.365Z,87.00
2017-12-31T23:13:11.751Z,131.13
2017-12-31T23:15:40.135Z,121.80
2017-12-31T23:18:08.474Z,323.57
2017-12-31T23:20:36.807Z,108.23
2017-12-31T23:23:05.975Z,358.70
2017-12-31T23:25:34.472Z,171.90
2017-12-31T23:28:02.842Z,163.53
2017-12-31T23:30:31.141Z,103.17
2017-12-31T23:33:00.308Z,108.23
2017-12-31T23:35:28.579Z,93.53
2017-12-31T23:37:56.879Z,93.57
2017-12-31T23:40:25.231Z,84.67
2017-12-31T23:42:53.627Z,90.97
2017-12-31T23:45:23.420Z,89.23
2017-12-31T23:47:51.710Z,79.77
2017-12-31T23:50:19.996Z,84.53
2017-12-31T23:52:48.370Z,67.80
2017-12-31T23:55:16.627Z,78.30
2017-12-31T23:57:44.891Z,84.90
